createdAt,value
2024-02-06T04:58:47.440Z,74.60
2024-02-06T04:59:48.703Z,74.70
2024-02-06T05:00:49.083Z,74.49
2024-02-06T05:01:49.377Z,74.60
2024-02-06T05:02:49.695Z,74.49
2024-02-06T05:03:50.193Z,74.60
2024-02-06T05:04:50.462Z,74.49
2024-02-06T05:05:50.705Z,74.49
2024-02-06T05:06:51.092Z,74.40
2024-02-06T05:07:51.727Z,74.40
2024-02-06T05:08:51.682Z,74.29
2024-02-06T05:09:52.061Z,74.49
2024-02-06T05:10:52.395Z,73.98
2024-02-06T05:11:52.673Z,74.40
2024-02-06T05:12:53.108Z,74.19
2024-02-06T05:13:53.329Z,74.08
2024-02-06T05:14:53.692Z,74.19
2024-02-06T05:15:55.061Z,74.29
2024-02-06T05:16:54.395Z,74.49
2024-02-06T05:17:54.804Z,74.49
2024-02-06T05:18:55.236Z,74.49
2024-02-06T05:19:55.480Z,74.19
2024-02-06T05:20:55.709Z,74.40
2024-02-06T05:21:56.080Z,74.08
2024-02-06T05:22:56.346Z,74.08
2024-02-06T05:23:56.687Z,73.98
2024-02-06T05:24:57.038Z,74.19
2024-02-06T05:25:57.418Z,74.19
2024-02-06T05:26:57.682Z,74.19
2024-02-06T05:27:58.249Z,74.29
2024-02-06T05:28:58.342Z,74.49
2024-02-06T05:29:58.678Z,74.29
2024-02-06T05:30:59.143Z,74.08
2024-02-06T05:31:59.418Z,74.29
2024-02-06T05:32:59.762Z,73.98
2024-02-06T05:34:00.225Z,73.88
2024-02-06T05:35:00.430Z,73.98
2024-02-06T05:36:00.777Z,73.88
2024-02-06T05:37:01.078Z,73.78
2024-02-06T05:38:01.474Z,73.78
2024-02-06T05:39:01.755Z,73.78
2024-02-06T05:40:02.336Z,74.08
2024-02-06T05:41:02.523Z,73.88
2024-02-06T05:42:02.792Z,73.88
2024-02-06T05:43:03.213Z,73.98
2024-02-06T05:44:03.496Z,73.98
2024-02-06T05:45:03.877Z,73.98
2024-02-06T05:46:04.274Z,74.08
2024-02-06T05:47:04.530Z,73.68
2024-02-06T05:48:05.002Z,73.78
2024-02-06T05:49:05.436Z,73.78
2024-02-06T05:50:05.911Z,73.68
2024-02-06T05:51:06.035Z,73.57
2024-02-06T05:52:06.323Z,73.36
2024-02-06T05:53:06.622Z,73.27
2024-02-06T05:54:07.035Z,73.27
2024-02-06T05:55:07.366Z,73.06
2024-02-06T05:56:07.664Z,73.06
2024-02-06T05:57:08.006Z,73.02
2024-02-06T05:58:08.401Z,73.27
2024-02-06T05:59:08.707Z,73.16
2024-02-06T06:00:09.054Z,73.36
2024-02-06T06:01:09.450Z,73.13
2024-02-06T06:02:10.081Z,73.23
2024-02-06T06:03:10.129Z,73.02
2024-02-06T06:04:10.643Z,73.23
2024-02-06T06:05:10.963Z,73.02
2024-02-06T06:06:11.101Z,73.02
2024-02-06T06:07:11.358Z,73.02
2024-02-06T06:08:11.582Z,72.61
2024-02-06T06:09:11.789Z,73.02
2024-02-06T06:10:12.138Z,72.82
2024-02-06T06:11:12.345Z,72.92
2024-02-06T06:12:12.586Z,73.13
2024-02-06T06:13:12.902Z,72.72
2024-02-06T06:14:13.110Z,72.72
2024-02-06T06:15:13.362Z,72.61
2024-02-06T06:16:13.666Z,72.92
2024-02-06T06:17:13.953Z,72.51
2024-02-06T06:18:14.309Z,72.61
2024-02-06T06:19:14.525Z,72.51
2024-02-06T06:20:14.777Z,72.61
2024-02-06T06:21:14.946Z,72.61
2024-02-06T06:22:15.270Z,72.72
2024-02-06T06:23:15.571Z,72.41
2024-02-06T06:24:15.761Z,72.31
2024-02-06T06:25:16.043Z,72.31
2024-02-06T06:26:16.282Z,72.51
2024-02-06T06:27:16.575Z,72.61
2024-02-06T06:28:16.846Z,72.41
2024-02-06T06:29:17.119Z,72.51
2024-02-06T06:30:17.344Z,72.92
2024-02-06T06:31:17.652Z,72.92
2024-02-06T06:32:17.925Z,72.61
2024-02-06T06:33:18.401Z,72.92
2024-02-06T06:34:18.698Z,72.92
2024-02-06T06:35:18.756Z,72.72
2024-02-06T06:36:19.083Z,72.51
2024-02-06T06:37:19.993Z,72.51
2024-02-06T06:38:19.518Z,72.72
2024-02-06T06:39:19.835Z,72.92
2024-02-06T06:40:20.141Z,72.92
2024-02-06T06:41:20.442Z,72.61
2024-02-06T06:42:20.672Z,72.41
2024-02-06T06:43:21.030Z,72.20
2024-02-06T06:44:21.228Z,72.31
2024-02-06T06:45:21.540Z,72.41
2024-02-06T06:46:21.810Z,72.51
2024-02-06T06:47:22.072Z,72.31
2024-02-06T06:48:22.465Z,72.61
2024-02-06T06:49:22.868Z,72.72
2024-02-06T06:50:22.958Z,72.82
2024-02-06T06:51:23.176Z,72.82
2024-02-06T06:52:23.440Z,72.82
2024-02-06T06:53:23.692Z,72.72
2024-02-06T06:54:23.952Z,72.61
2024-02-06T06:55:24.261Z,72.41
2024-02-06T06:56:24.486Z,72.51
2024-02-06T06:57:24.715Z,72.72
2024-02-06T06:58:25.076Z,72.72
2024-02-06T06:59:25.340Z,72.92
2024-02-06T07:00:25.547Z,72.82
2024-02-06T07:01:25.873Z,72.82
2024-02-06T07:02:26.087Z,72.92
2024-02-06T07:03:26.564Z,72.72
2024-02-06T07:04:26.754Z,72.92
2024-02-06T07:05:26.955Z,72.92
2024-02-06T07:06:27.310Z,72.82
2024-02-06T07:07:27.564Z,73.23
2024-02-06T07:08:27.813Z,73.02
2024-02-06T07:09:28.074Z,72.92
2024-02-06T07:10:28.401Z,73.02
2024-02-06T07:11:28.602Z,73.02
2024-02-06T07:12:28.875Z,73.13
2024-02-06T07:13:29.242Z,73.13
2024-02-06T07:14:29.440Z,73.23
2024-02-06T07:15:29.701Z,73.13
2024-02-06T07:16:30.161Z,73.33
2024-02-06T07:17:30.325Z,73.44
2024-02-06T07:18:30.613Z,73.44
2024-02-06T07:19:30.909Z,73.33
2024-02-06T07:20:31.166Z,73.64
2024-02-06T21:18:19.444Z,67.68
2024-02-06T21:19:20.926Z,67.68
2024-02-06T21:20:21.290Z,67.57
2024-02-06T21:21:21.476Z,67.57
2024-02-06T21:22:21.808Z,67.68
2024-02-06T21:23:22.111Z,67.57
2024-02-06T21:24:22.515Z,67.57
2024-02-06T21:25:22.941Z,67.57
2024-02-06T21:26:23.146Z,67.68
2024-02-06T21:27:24.402Z,67.78
2024-02-06T21:28:23.914Z,67.57
2024-02-06T21:29:24.739Z,67.68
2024-02-06T21:30:24.603Z,67.68
2024-02-06T21:31:25.436Z,67.68
2024-02-06T21:32:26.206Z,67.78
2024-02-06T21:33:25.679Z,67.98
2024-02-06T21:34:26.086Z,67.78
2024-02-06T21:35:26.329Z,67.78
2024-02-06T21:36:26.592Z,67.88
2024-02-06T21:37:27.860Z,67.78
2024-02-06T21:38:27.863Z,67.78
2024-02-06T21:39:27.754Z,67.78
2024-02-06T21:40:28.324Z,67.57
2024-02-06T21:41:29.253Z,67.57
2024-02-06T21:42:29.598Z,67.68
2024-02-06T21:43:33.222Z,67.78
2024-02-06T21:44:29.432Z,67.98
2024-02-06T21:45:29.710Z,67.88
2024-02-06T21:46:31.100Z,67.68
2024-02-06T21:47:30.544Z,67.68
2024-02-06T21:48:30.825Z,67.57
2024-02-06T21:49:31.420Z,67.78
2024-02-06T21:50:31.615Z,67.68
2024-02-06T21:51:31.714Z,67.57
2024-02-06T21:52:32.158Z,67.68
2024-02-06T21:53:32.446Z,67.68
2024-02-06T21:54:32.702Z,67.78
2024-02-06T21:55:33.108Z,67.78
2024-02-06T21:56:33.685Z,67.78
2024-02-06T21:57:33.814Z,67.88
2024-02-06T21:58:34.238Z,67.88
2024-02-06T21:59:35.255Z,67.78
2024-02-06T22:00:35.603Z,67.98
2024-02-06T22:01:35.411Z,67.98
2024-02-06T22:02:35.576Z,67.88
2024-02-06T22:03:36.012Z,67.98
2024-02-06T22:04:36.674Z,67.98
2024-02-06T22:05:38.182Z,68.19
2024-02-06T22:06:37.135Z,67.98
2024-02-06T22:07:37.276Z,67.88
2024-02-06T22:08:37.537Z,67.98
2024-02-06T22:09:37.889Z,68.08
2024-02-06T22:10:38.291Z,68.29
2024-02-06T22:11:38.590Z,67.98
2024-02-06T22:12:38.938Z,67.98
2024-02-06T22:13:39.341Z,67.88
2024-02-06T22:14:39.641Z,67.98
2024-02-06T22:15:40.018Z,68.39
2024-02-06T22:16:40.339Z,68.08
2024-02-06T22:17:40.839Z,67.98
2024-02-06T22:18:41.212Z,67.88
2024-02-06T22:19:41.553Z,67.88
2024-02-06T22:20:41.758Z,68.08
2024-02-06T22:21:42.089Z,67.88
2024-02-06T22:22:46.311Z,67.88
2024-02-06T22:23:42.795Z,68.19
2024-02-06T22:24:43.171Z,68.08
2024-02-06T22:25:43.496Z,67.98
2024-02-06T22:26:43.813Z,68.19
2024-02-06T22:27:44.149Z,67.88
2024-02-06T22:28:44.607Z,67.98
2024-02-06T22:29:44.866Z,67.68
2024-02-06T22:30:45.213Z,67.78
2024-02-06T22:31:45.664Z,67.88
2024-02-06T22:32:45.891Z,67.98
2024-02-06T22:33:46.269Z,67.88
2024-02-06T22:34:46.606Z,68.08
2024-02-06T22:35:46.928Z,67.98
2024-02-06T22:36:47.268Z,67.98
2024-02-06T22:37:47.732Z,68.29
2024-02-06T22:38:47.983Z,67.98
2024-02-06T22:39:48.333Z,67.98
2024-02-06T22:40:48.833Z,67.88
2024-02-06T22:41:48.953Z,67.98
2024-02-06T22:42:49.642Z,68.08
2024-02-06T22:43:51.081Z,67.88
2024-02-06T22:44:50.034Z,67.88
2024-02-06T22:45:50.350Z,67.88
2024-02-06T22:46:50.915Z,67.78
2024-02-06T22:47:51.061Z,68.08
2024-02-06T22:48:51.370Z,67.98
2024-02-06T22:49:54.487Z,68.08
2024-02-06T22:50:52.137Z,68.08
2024-02-06T22:51:52.385Z,67.88
2024-02-06T22:52:52.819Z,67.98
2024-02-06T22:53:53.123Z,67.98
2024-02-06T22:54:53.457Z,67.88
2024-02-06T22:55:53.951Z,67.98
2024-02-06T22:56:54.242Z,67.88
2024-02-06T22:57:54.476Z,67.98
2024-02-06T22:58:54.866Z,67.98
2024-02-06T22:59:55.188Z,67.98
2024-02-06T23:00:55.617Z,68.08
2024-02-06T23:01:55.997Z,67.98
2024-02-06T23:02:56.235Z,67.98
2024-02-06T23:03:56.681Z,68.19
2024-02-06T23:04:56.987Z,68.19
2024-02-06T23:05:57.504Z,68.08
2024-02-06T23:06:57.948Z,68.08
2024-02-06T23:07:58.049Z,67.98
2024-02-06T23:08:58.294Z,68.19
2024-02-06T23:09:58.640Z,68.29
2024-02-06T23:10:59.025Z,68.19
2024-02-06T23:11:59.349Z,68.08
2024-02-06T23:12:59.717Z,67.88
2024-02-06T23:14:00.032Z,68.08
2024-02-06T23:15:00.353Z,68.19
2024-02-06T23:16:00.731Z,68.19
2024-02-06T23:17:01.070Z,68.39
2024-02-06T23:18:01.488Z,68.49
2024-02-06T23:19:01.872Z,68.19
2024-02-06T23:20:02.207Z,68.29
2024-02-06T23:21:02.467Z,68.29
2024-02-06T23:22:02.726Z,68.49
2024-02-06T23:23:03.097Z,68.60
2024-02-06T23:24:03.428Z,68.60
2024-02-06T23:25:03.884Z,68.29
2024-02-06T23:26:04.083Z,68.29
2024-02-06T23:27:04.437Z,68.08
2024-02-06T23:28:04.882Z,68.19
2024-02-06T23:29:05.112Z,68.39
2024-02-06T23:30:05.478Z,68.19
2024-02-06T23:31:05.882Z,68.19
2024-02-06T23:32:06.180Z,68.29
2024-02-06T23:33:06.624Z,68.29
2024-02-06T23:34:06.957Z,68.29
2024-02-06T23:35:07.357Z,68.49
2024-02-06T23:36:07.562Z,68.29
2024-02-06T23:37:07.946Z,68.19
2024-02-06T23:38:08.239Z,68.49
2024-02-06T23:39:15.356Z,68.19
2024-02-06T23:40:08.974Z,68.29
2024-02-06T23:41:09.254Z,67.98
2024-02-06T23:42:09.584Z,68.08
2024-02-06T23:43:09.961Z,68.29
2024-02-06T23:44:10.550Z,68.19
2024-02-06T23:45:10.653Z,68.39
2024-02-06T23:46:11.095Z,68.49
2024-02-06T23:47:11.305Z,68.49
2024-02-06T23:48:11.747Z,68.49
2024-02-06T23:49:12.206Z,68.39
2024-02-06T23:50:15.578Z,68.39
2024-02-06T23:51:12.740Z,68.49
2024-02-06T23:52:13.080Z,68.29
2024-02-06T23:53:13.420Z,68.29
2024-02-06T23:54:13.732Z,68.39
2024-02-06T23:55:14.183Z,68.39
2024-02-06T23:56:14.429Z,68.39
2024-02-06T23:57:14.826Z,68.49
2024-02-06T23:58:15.179Z,68.39
2024-02-06T23:59:15.506Z,68.49
